sensor_id;sensor_type;location;lat;lon;timestamp;pressure;altitude;pressure_sealevel;temperature;humidity
52949;BME280;38812;50.942;3.644;2023-09-19T00:01:32;100905.69;;;13.86;nan
52949;BME280;38812;50.942;3.644;2023-09-19T00:03:58;100913.63;;;13.86;nan
52949;BME280;38812;50.942;3.644;2023-09-19T00:06:23;100916.41;;;13.83;nan
52949;BME280;38812;50.942;3.644;2023-09-19T00:08:51;100924.47;;;13.78;nan
52949;BME280;38812;50.942;3.644;2023-09-19T00:11:17;100920.16;;;13.76;nan
52949;BME280;38812;50.942;3.644;2023-09-19T00:13:42;100922.94;;;13.71;nan
52949;BME280;38812;50.942;3.644;2023-09-19T00:16:09;100919.56;;;13.66;nan
52949;BME280;38812;50.942;3.644;2023-09-19T00:18:39;100925.56;;;13.71;nan
52949;BME280;38812;50.942;3.644;2023-09-19T00:21:04;100915.38;;;13.60;nan
52949;BME280;38812;50.942;3.644;2023-09-19T00:23:30;100925.75;;;13.65;nan
52949;BME280;38812;50.942;3.644;2023-09-19T00:26:00;100911.97;;;13.57;nan
52949;BME280;38812;50.942;3.644;2023-09-19T00:28:26;100921.41;;;13.64;nan
52949;BME280;38812;50.942;3.644;2023-09-19T00:30:52;100921.66;;;13.56;nan
52949;BME280;38812;50.942;3.644;2023-09-19T00:33:19;100924.50;;;13.50;nan
52949;BME280;38812;50.942;3.644;2023-09-19T00:35:52;100941.97;;;13.54;nan
52949;BME280;38812;50.942;3.644;2023-09-19T00:38:18;100930.44;;;13.57;nan
52949;BME280;38812;50.942;3.644;2023-09-19T00:40:49;100940.69;;;13.66;nan
52949;BME280;38812;50.942;3.644;2023-09-19T00:43:16;100935.22;;;13.72;nan
52949;BME280;38812;50.942;3.644;2023-09-19T00:45:43;100965.84;;;13.78;nan
52949;BME280;38812;50.942;3.644;2023-09-19T00:48:10;100938.25;;;13.86;nan
52949;BME280;38812;50.942;3.644;2023-09-19T00:50:38;100930.28;;;13.88;nan
52949;BME280;38812;50.942;3.644;2023-09-19T00:53:07;100936.25;;;13.94;nan
52949;BME280;38812;50.942;3.644;2023-09-19T00:55:34;100929.31;;;13.90;nan
52949;BME280;38812;50.942;3.644;2023-09-19T00:58:00;100915.31;;;13.88;nan
52949;BME280;38812;50.942;3.644;2023-09-19T01:00:25;100940.75;;;13.91;nan
52949;BME280;38812;50.942;3.644;2023-09-19T01:02:51;100929.94;;;13.98;nan
52949;BME280;38812;50.942;3.644;2023-09-19T01:05:17;100928.06;;;14.02;nan
52949;BME280;38812;50.942;3.644;2023-09-19T01:07:43;100936.03;;;14.00;nan
52949;BME280;38812;50.942;3.644;2023-09-19T01:10:18;100932.69;;;13.95;nan
52949;BME280;38812;50.942;3.644;2023-09-19T01:18:02;100948.53;;;13.95;nan
52949;BME280;38812;50.942;3.644;2023-09-19T01:23:36;100962.34;;;14.03;nan
52949;BME280;38812;50.942;3.644;2023-09-19T01:29:41;100945.38;;;14.11;nan
52949;BME280;38812;50.942;3.644;2023-09-19T01:32:02;100955.03;;;14.12;nan
52949;BME280;38812;50.942;3.644;2023-09-19T01:34:46;100951.47;;;14.13;nan
52949;BME280;38812;50.942;3.644;2023-09-19T01:37:13;100951.47;;;14.13;nan
52949;BME280;38812;50.942;3.644;2023-09-19T01:39:40;100947.75;;;14.18;nan
52949;BME280;38812;50.942;3.644;2023-09-19T01:42:21;100952.06;;;14.21;nan
52949;BME280;38812;50.942;3.644;2023-09-19T01:45:13;100951.16;;;14.22;nan
52949;BME280;38812;50.942;3.644;2023-09-19T01:47:50;100956.44;;;14.22;nan
52949;BME280;38812;50.942;3.644;2023-09-19T01:50:42;100954.53;;;14.27;nan
52949;BME280;38812;50.942;3.644;2023-09-19T01:53:33;100943.94;;;14.27;nan
52949;BME280;38812;50.942;3.644;2023-09-19T01:56:01;100941.34;;;14.25;nan
52949;BME280;38812;50.942;3.644;2023-09-19T01:58:38;100949.22;;;14.27;nan
52949;BME280;38812;50.942;3.644;2023-09-19T02:01:05;100950.16;;;14.26;nan
52949;BME280;38812;50.942;3.644;2023-09-19T02:03:33;100944.06;;;14.24;nan
52949;BME280;38812;50.942;3.644;2023-09-19T02:06:00;100953.69;;;14.25;nan
52949;BME280;38812;50.942;3.644;2023-09-19T02:08:26;100941.41;;;14.24;nan
52949;BME280;38812;50.942;3.644;2023-09-19T02:10:51;100944.31;;;14.16;nan
52949;BME280;38812;50.942;3.644;2023-09-19T02:13:21;100954.00;;;14.16;nan
52949;BME280;38812;50.942;3.644;2023-09-19T02:15:51;100947.00;;;14.15;nan
52949;BME280;38812;50.942;3.644;2023-09-19T02:18:16;100930.31;;;14.13;nan
52949;BME280;38812;50.942;3.644;2023-09-19T02:20:42;100927.53;;;14.17;nan
52949;BME280;38812;50.942;3.644;2023-09-19T02:23:08;100929.16;;;14.21;nan
52949;BME280;38812;50.942;3.644;2023-09-19T02:25:34;100939.53;;;14.27;nan
52949;BME280;38812;50.942;3.644;2023-09-19T02:28:04;100958.69;;;14.32;nan
52949;BME280;38812;50.942;3.644;2023-09-19T02:30:30;100947.06;;;14.38;nan
52949;BME280;38812;50.942;3.644;2023-09-19T02:32:56;100967.28;;;14.40;nan
52949;BME280;38812;50.942;3.644;2023-09-19T02:35:21;100948.78;;;14.39;nan
52949;BME280;38812;50.942;3.644;2023-09-19T02:37:47;100947.94;;;14.38;nan
52949;BME280;38812;50.942;3.644;2023-09-19T02:40:14;100989.34;;;14.38;nan
52949;BME280;38812;50.942;3.644;2023-09-19T02:42:53;100959.47;;;14.36;nan
52949;BME280;38812;50.942;3.644;2023-09-19T02:45:19;100961.13;;;14.38;nan
52949;BME280;38812;50.942;3.644;2023-09-19T02:47:48;100961.28;;;14.34;nan
52949;BME280;38812;50.942;3.644;2023-09-19T02:50:14;100954.28;;;14.33;nan
52949;BME280;38812;50.942;3.644;2023-09-19T02:52:43;100962.41;;;14.28;nan
52949;BME280;38812;50.942;3.644;2023-09-19T02:55:10;100961.72;;;14.22;nan
52949;BME280;38812;50.942;3.644;2023-09-19T02:57:36;100970.66;;;14.18;nan
52949;BME280;38812;50.942;3.644;2023-09-19T03:00:08;100961.25;;;14.09;nan
52949;BME280;38812;50.942;3.644;2023-09-19T03:02:36;100983.44;;;14.05;nan
52949;BME280;38812;50.942;3.644;2023-09-19T03:05:01;100970.47;;;13.97;nan
52949;BME280;38812;50.942;3.644;2023-09-19T03:07:28;100952.09;;;13.94;nan
52949;BME280;38812;50.942;3.644;2023-09-19T03:09:53;100952.50;;;13.82;nan
52949;BME280;38812;50.942;3.644;2023-09-19T03:12:20;100935.22;;;13.72;nan
52949;BME280;38812;50.942;3.644;2023-09-19T03:14:45;100935.22;;;13.72;nan
52949;BME280;38812;50.942;3.644;2023-09-19T03:17:11;100925.63;;;13.69;nan
52949;BME280;38812;50.942;3.644;2023-09-19T03:19:36;100919.03;;;13.56;nan
52949;BME280;38812;50.942;3.644;2023-09-19T03:22:04;100917.56;;;13.46;nan
52949;BME280;38812;50.942;3.644;2023-09-19T03:24:29;100929.31;;;13.37;nan
52949;BME280;38812;50.942;3.644;2023-09-19T03:26:57;100930.31;;;13.33;nan
52949;BME280;38812;50.942;3.644;2023-09-19T03:29:22;100917.19;;;13.30;nan
52949;BME280;38812;50.942;3.644;2023-09-19T03:31:48;100927.94;;;13.24;nan
52949;BME280;38812;50.942;3.644;2023-09-19T03:34:13;100909.63;;;13.20;nan
52949;BME280;38812;50.942;3.644;2023-09-19T03:36:38;100935.25;;;13.15;nan
52949;BME280;38812;50.942;3.644;2023-09-19T03:39:05;100935.22;;;13.16;nan
52949;BME280;38812;50.942;3.644;2023-09-19T03:41:32;100912.41;;;13.15;nan
52949;BME280;38812;50.942;3.644;2023-09-19T03:43:58;100929.19;;;13.11;nan
52949;BME280;38812;50.942;3.644;2023-09-19T03:46:23;100925.59;;;13.14;nan
52949;BME280;38812;50.942;3.644;2023-09-19T03:48:50;100925.59;;;13.15;nan
52949;BME280;38812;50.942;3.644;2023-09-19T03:51:15;100920.34;;;13.14;nan
52949;BME280;38812;50.942;3.644;2023-09-19T03:53:40;100926.47;;;13.14;nan
52949;BME280;38812;50.942;3.644;2023-09-19T03:56:06;100933.56;;;13.12;nan
52949;BME280;38812;50.942;3.644;2023-09-19T03:58:31;100938.00;;;13.10;nan
52949;BME280;38812;50.942;3.644;2023-09-19T04:00:57;100915.03;;;13.15;nan
52949;BME280;38812;50.942;3.644;2023-09-19T04:03:23;100923.72;;;13.19;nan
52949;BME280;38812;50.942;3.644;2023-09-19T04:05:50;100911.56;;;13.13;nan
52949;BME280;38812;50.942;3.644;2023-09-19T04:08:15;100906.31;;;13.12;nan
52949;BME280;38812;50.942;3.644;2023-09-19T04:10:44;100907.13;;;13.14;nan
52949;BME280;38812;50.942;3.644;2023-09-19T04:13:10;100897.75;;;13.03;nan
52949;BME280;38812;50.942;3.644;2023-09-19T04:15:36;100901.22;;;13.05;nan
52949;BME280;38812;50.942;3.644;2023-09-19T04:18:03;100904.78;;;13.04;nan
52949;BME280;38812;50.942;3.644;2023-09-19T04:20:28;100907.66;;;12.97;nan
52949;BME280;38812;50.942;3.644;2023-09-19T04:22:54;100903.25;;;12.97;nan
52949;BME280;38812;50.942;3.644;2023-09-19T04:25:20;100904.00;;;13.01;nan
52949;BME280;38812;50.942;3.644;2023-09-19T04:27:46;100904.00;;;13.01;nan
52949;BME280;38812;50.942;3.644;2023-09-19T04:30:14;100911.13;;;12.99;nan
52949;BME280;38812;50.942;3.644;2023-09-19T04:32:40;100919.06;;;12.97;nan
52949;BME280;38812;50.942;3.644;2023-09-19T04:35:10;100921.72;;;12.97;nan
52949;BME280;38812;50.942;3.644;2023-09-19T04:37:39;100931.34;;;12.98;nan
52949;BME280;38812;50.942;3.644;2023-09-19T04:40:09;100930.47;;;12.98;nan
52949;BME280;38812;50.942;3.644;2023-09-19T04:42:42;100935.84;;;12.95;nan
52949;BME280;38812;50.942;3.644;2023-09-19T04:45:08;100933.16;;;12.96;nan
52949;BME280;38812;50.942;3.644;2023-09-19T04:47:39;100944.38;;;13.03;nan
52949;BME280;38812;50.942;3.644;2023-09-19T04:50:08;100944.28;;;13.06;nan
52949;BME280;38812;50.942;3.644;2023-09-19T04:52:39;100937.28;;;13.05;nan
52949;BME280;38812;50.942;3.644;2023-09-19T04:55:04;100954.84;;;13.06;nan
52949;BME280;38812;50.942;3.644;2023-09-19T04:57:30;100943.34;;;13.09;nan
52949;BME280;38812;50.942;3.644;2023-09-19T04:59:56;100935.47;;;13.07;nan
52949;BME280;38812;50.942;3.644;2023-09-19T05:02:22;100928.72;;;13.28;nan
52949;BME280;38812;50.942;3.644;2023-09-19T05:04:47;100935.75;;;13.27;nan
52949;BME280;38812;50.942;3.644;2023-09-19T05:07:13;100946.34;;;13.26;nan
52949;BME280;38812;50.942;3.644;2023-09-19T05:09:38;100946.44;;;13.23;nan
52949;BME280;38812;50.942;3.644;2023-09-19T05:12:04;100949.13;;;13.21;nan
52949;BME280;38812;50.942;3.644;2023-09-19T05:14:29;100938.78;;;13.15;nan
52949;BME280;38812;50.942;3.644;2023-09-19T05:16:55;100943.16;;;13.15;nan
52949;BME280;38812;50.942;3.644;2023-09-19T05:19:20;100933.72;;;13.06;nan
52949;BME280;38812;50.942;3.644;2023-09-19T05:21:45;100926.72;;;13.05;nan
52949;BME280;38812;50.942;3.644;2023-09-19T05:24:12;100934.72;;;13.02;nan
52949;BME280;38812;50.942;3.644;2023-09-19T05:26:39;100927.63;;;13.04;nan
52949;BME280;38812;50.942;3.644;2023-09-19T05:29:05;100922.31;;;13.05;nan
52949;BME280;38812;50.942;3.644;2023-09-19T05:31:33;100931.91;;;13.08;nan
52949;BME280;38812;50.942;3.644;2023-09-19T05:34:01;100934.56;;;13.08;nan
52949;BME280;38812;50.942;3.644;2023-09-19T05:36:27;100919.72;;;13.04;nan
52949;BME280;38812;50.942;3.644;2023-09-19T05:38:54;100942.47;;;13.08;nan
52949;BME280;38812;50.942;3.644;2023-09-19T05:41:20;100945.16;;;13.07;nan
52949;BME280;38812;50.942;3.644;2023-09-19T05:43:49;100936.28;;;13.09;nan
52949;BME280;38812;50.942;3.644;2023-09-19T05:46:15;100958.13;;;13.14;nan
52949;BME280;38812;50.942;3.644;2023-09-19T05:48:41;100941.41;;;13.15;nan
52949;BME280;38812;50.942;3.644;2023-09-19T05:51:06;100936.88;;;13.20;nan
52949;BME280;38812;50.942;3.644;2023-09-19T05:53:32;100945.41;;;13.28;nan
52949;BME280;38812;50.942;3.644;2023-09-19T05:55:57;100946.09;;;13.35;nan
52949;BME280;38812;50.942;3.644;2023-09-19T05:58:26;100951.19;;;13.41;nan
52949;BME280;38812;50.942;3.644;2023-09-19T06:00:51;100957.97;;;13.48;nan
52949;BME280;38812;50.942;3.644;2023-09-19T06:03:17;100954.38;;;13.51;nan
52949;BME280;38812;50.942;3.644;2023-09-19T06:05:44;100964.91;;;13.52;nan
52949;BME280;38812;50.942;3.644;2023-09-19T06:08:11;100951.56;;;13.57;nan
52949;BME280;38812;50.942;3.644;2023-09-19T06:10:37;100953.25;;;13.59;nan
52949;BME280;38812;50.942;3.644;2023-09-19T06:13:03;100949.66;;;13.62;nan
52949;BME280;38812;50.942;3.644;2023-09-19T06:15:34;100963.53;;;13.67;nan
52949;BME280;38812;50.942;3.644;2023-09-19T06:18:01;100978.38;;;13.71;nan
52949;BME280;38812;50.942;3.644;2023-09-19T06:20:27;100962.44;;;13.74;nan
52949;BME280;38812;50.942;3.644;2023-09-19T06:22:53;100959.59;;;13.80;nan
52949;BME280;38812;50.942;3.644;2023-09-19T06:25:19;100964.88;;;13.80;nan
52949;BME280;38812;50.942;3.644;2023-09-19T06:27:46;100958.75;;;13.80;nan
52949;BME280;38812;50.942;3.644;2023-09-19T06:30:11;100988.69;;;13.79;nan
52949;BME280;38812;50.942;3.644;2023-09-19T06:32:38;100976.28;;;13.82;nan
52949;BME280;38812;50.942;3.644;2023-09-19T06:35:04;100974.44;;;13.84;nan
52949;BME280;38812;50.942;3.644;2023-09-19T06:37:32;100979.56;;;13.89;nan
52949;BME280;38812;50.942;3.644;2023-09-19T06:39:59;100976.78;;;13.93;nan
52949;BME280;38812;50.942;3.644;2023-09-19T06:42:25;100987.03;;;14.02;nan
52949;BME280;38812;50.942;3.644;2023-09-19T06:44:50;100980.75;;;14.06;nan
52949;BME280;38812;50.942;3.644;2023-09-19T06:47:16;100996.38;;;14.13;nan
52949;BME280;38812;50.942;3.644;2023-09-19T06:49:42;100989.03;;;14.22;nan
52949;BME280;38812;50.942;3.644;2023-09-19T06:52:10;100988.75;;;14.30;nan
52949;BME280;38812;50.942;3.644;2023-09-19T06:54:36;100978.78;;;14.38;nan
52949;BME280;38812;50.942;3.644;2023-09-19T06:57:02;100991.78;;;14.46;nan
52949;BME280;38812;50.942;3.644;2023-09-19T06:59:28;100984.09;;;14.63;nan
52949;BME280;38812;50.942;3.644;2023-09-19T07:01:53;100982.19;;;14.68;nan
52949;BME280;38812;50.942;3.644;2023-09-19T07:04:19;100983.59;;;14.77;nan
52949;BME280;38812;50.942;3.644;2023-09-19T07:06:49;100975.41;;;14.84;nan
52949;BME280;38812;50.942;3.644;2023-09-19T07:09:15;100995.19;;;14.97;nan
52949;BME280;38812;50.942;3.644;2023-09-19T07:11:40;100985.13;;;15.07;nan
52949;BME280;38812;50.942;3.644;2023-09-19T07:14:06;100984.38;;;15.03;nan
52949;BME280;38812;50.942;3.644;2023-09-19T07:16:31;100994.38;;;15.19;nan
52949;BME280;38812;50.942;3.644;2023-09-19T07:18:56;100992.38;;;15.25;nan
52949;BME280;38812;50.942;3.644;2023-09-19T07:21:23;100998.16;;;15.36;nan
52949;BME280;38812;50.942;3.644;2023-09-19T07:23:49;100994.53;;;15.37;nan
52949;BME280;38812;50.942;3.644;2023-09-19T07:26:15;100995.94;;;15.48;nan
52949;BME280;38812;50.942;3.644;2023-09-19T07:28:41;101010.78;;;15.52;nan
52949;BME280;38812;50.942;3.644;2023-09-19T07:31:06;101007.16;;;15.54;nan
52949;BME280;38812;50.942;3.644;2023-09-19T07:33:36;101005.03;;;15.64;nan
52949;BME280;38812;50.942;3.644;2023-09-19T07:36:01;100991.91;;;15.61;nan
52949;BME280;38812;50.942;3.644;2023-09-19T07:38:27;100998.69;;;15.68;nan
52949;BME280;38812;50.942;3.644;2023-09-19T07:40:52;100991.03;;;15.82;nan
52949;BME280;38812;50.942;3.644;2023-09-19T07:43:18;101003.13;;;15.89;nan
52949;BME280;38812;50.942;3.644;2023-09-19T07:45:43;101001.97;;;15.96;nan
52949;BME280;38812;50.942;3.644;2023-09-19T07:48:09;100997.94;;;16.08;nan
52949;BME280;38812;50.942;3.644;2023-09-19T07:50:39;101003.88;;;16.35;nan
52949;BME280;38812;50.942;3.644;2023-09-19T07:53:05;100998.56;;;16.35;nan
52949;BME280;38812;50.942;3.644;2023-09-19T07:55:31;101000.09;;;16.40;nan
52949;BME280;38812;50.942;3.644;2023-09-19T07:57:59;100987.59;;;16.44;nan
52949;BME280;38812;50.942;3.644;2023-09-19T08:00:24;100982.66;;;16.55;nan
52949;BME280;38812;50.942;3.644;2023-09-19T08:02:49;100984.66;;;16.70;nan
52949;BME280;38812;50.942;3.644;2023-09-19T08:05:17;100982.34;;;16.83;nan
52949;BME280;38812;50.942;3.644;2023-09-19T08:07:44;100995.84;;;16.97;nan
52949;BME280;38812;50.942;3.644;2023-09-19T08:10:17;100988.63;;;17.01;nan
52949;BME280;38812;50.942;3.644;2023-09-19T08:12:46;100993.00;;;17.02;nan
52949;BME280;38812;50.942;3.644;2023-09-19T08:15:16;100997.53;;;17.19;nan
52949;BME280;38812;50.942;3.644;2023-09-19T08:17:42;101002.13;;;17.15;nan
52949;BME280;38812;50.942;3.644;2023-09-19T08:20:09;100992.88;;;17.42;nan
52949;BME280;38812;50.942;3.644;2023-09-19T08:22:42;100998.78;;;17.49;nan
52949;BME280;38812;50.942;3.644;2023-09-19T08:25:07;100995.31;;;17.28;nan
52949;BME280;38812;50.942;3.644;2023-09-19T08:27:33;100985.06;;;17.21;nan
52949;BME280;38812;50.942;3.644;2023-09-19T08:29:59;100989.56;;;17.19;nan
52949;BME280;38812;50.942;3.644;2023-09-19T08:32:25;100997.31;;;17.42;nan
52949;BME280;38812;50.942;3.644;2023-09-19T08:34:52;100989.28;;;17.62;nan
52949;BME280;38812;50.942;3.644;2023-09-19T08:37:17;100975.66;;;17.70;nan
52949;BME280;38812;50.942;3.644;2023-09-19T08:39:44;100973.78;;;17.72;nan
52949;BME280;38812;50.942;3.644;2023-09-19T08:42:10;100981.66;;;17.55;nan
52949;BME280;38812;50.942;3.644;2023-09-19T08:44:37;100992.06;;;17.59;nan
52949;BME280;38812;50.942;3.644;2023-09-19T08:47:14;100991.81;;;17.46;nan
52949;BME280;38812;50.942;3.644;2023-09-19T08:52:20;100992.94;;;17.78;nan
52949;BME280;38812;50.942;3.644;2023-09-19T08:54:48;100992.72;;;17.83;nan
52949;BME280;38812;50.942;3.644;2023-09-19T08:57:17;100998.97;;;17.82;nan
52949;BME280;38812;50.942;3.644;2023-09-19T08:59:47;100999.13;;;18.32;nan
52949;BME280;38812;50.942;3.644;2023-09-19T09:02:16;100991.72;;;18.39;nan
52949;BME280;38812;50.942;3.644;2023-09-19T09:04:45;101006.09;;;18.35;nan
52949;BME280;38812;50.942;3.644;2023-09-19T09:07:11;100994.09;;;18.09;nan
52949;BME280;38812;50.942;3.644;2023-09-19T09:09:41;101004.19;;;18.20;nan
52949;BME280;38812;50.942;3.644;2023-09-19T09:12:11;100990.50;;;18.10;nan
52949;BME280;38812;50.942;3.644;2023-09-19T09:14:47;100990.56;;;17.91;nan
52949;BME280;38812;50.942;3.644;2023-09-19T09:17:17;100995.16;;;17.88;nan
52949;BME280;38812;50.942;3.644;2023-09-19T09:19:46;100994.31;;;17.87;nan
52949;BME280;38812;50.942;3.644;2023-09-19T09:22:12;100989.28;;;17.81;nan
52949;BME280;38812;50.942;3.644;2023-09-19T09:24:51;100983.22;;;17.96;nan
52949;BME280;38812;50.942;3.644;2023-09-19T09:27:19;100999.34;;;18.10;nan
52949;BME280;38812;50.942;3.644;2023-09-19T09:29:48;100985.75;;;18.17;nan
52949;BME280;38812;50.942;3.644;2023-09-19T09:32:43;100980.28;;;18.37;nan
52949;BME280;38812;50.942;3.644;2023-09-19T09:35:09;100978.56;;;18.70;nan
52949;BME280;38812;50.942;3.644;2023-09-19T09:37:35;100986.50;;;19.36;nan
52949;BME280;38812;50.942;3.644;2023-09-19T09:40:04;100977.50;;;19.86;nan
52949;BME280;38812;50.942;3.644;2023-09-19T09:42:56;100982.75;;;19.88;nan
52949;BME280;38812;50.942;3.644;2023-09-19T09:45:24;100991.50;;;20.05;nan
52949;BME280;38812;50.942;3.644;2023-09-19T09:47:59;100973.44;;;19.95;nan
52949;BME280;38812;50.942;3.644;2023-09-19T09:50:36;100971.16;;;20.18;nan
52949;BME280;38812;50.942;3.644;2023-09-19T09:53:08;100977.81;;;20.11;nan
52949;BME280;38812;50.942;3.644;2023-09-19T09:56:07;100977.44;;;20.17;nan
52949;BME280;38812;50.942;3.644;2023-09-19T10:00:59;100968.06;;;20.56;nan
52949;BME280;38812;50.942;3.644;2023-09-19T10:03:35;100991.41;;;20.81;nan
52949;BME280;38812;50.942;3.644;2023-09-19T10:06:06;100968.06;;;20.70;nan
52949;BME280;38812;50.942;3.644;2023-09-19T10:09:06;100977.50;;;20.90;nan
52949;BME280;38812;50.942;3.644;2023-09-19T10:11:35;100974.34;;;20.83;nan
52949;BME280;38812;50.942;3.644;2023-09-19T10:14:02;100962.53;;;20.87;nan
52949;BME280;38812;50.942;3.644;2023-09-19T10:16:32;100958.44;;;21.25;nan
52949;BME280;38812;50.942;3.644;2023-09-19T10:19:01;100963.31;;;21.32;nan
52949;BME280;38812;50.942;3.644;2023-09-19T10:21:28;100972.03;;;21.48;nan
52949;BME280;38812;50.942;3.644;2023-09-19T10:23:58;100977.19;;;21.51;nan
52949;BME280;38812;50.942;3.644;2023-09-19T10:26:26;100959.06;;;21.57;nan
52949;BME280;38812;50.942;3.644;2023-09-19T10:28:57;100966.25;;;21.42;nan
52949;BME280;38812;50.942;3.644;2023-09-19T10:31:26;100962.13;;;21.50;nan
52949;BME280;38812;50.942;3.644;2023-09-19T10:33:53;100957.44;;;21.54;nan
52949;BME280;38812;50.942;3.644;2023-09-19T10:36:24;100969.78;;;21.42;nan
52949;BME280;38812;50.942;3.644;2023-09-19T10:38:52;100959.28;;;20.68;nan
52949;BME280;38812;50.942;3.644;2023-09-19T10:41:22;100971.72;;;20.98;nan
52949;BME280;38812;50.942;3.644;2023-09-19T10:43:48;100965.00;;;20.62;nan
52949;BME280;38812;50.942;3.644;2023-09-19T10:46:14;100952.91;;;21.42;nan
52949;BME280;38812;50.942;3.644;2023-09-19T10:48:40;100953.56;;;22.26;nan
52949;BME280;38812;50.942;3.644;2023-09-19T10:51:16;100952.03;;;21.27;nan
52949;BME280;38812;50.942;3.644;2023-09-19T10:56:30;100968.34;;;21.78;nan
52949;BME280;38812;50.942;3.644;2023-09-19T10:59:06;100978.25;;;21.49;nan
52949;BME280;38812;50.942;3.644;2023-09-19T11:01:53;100978.56;;;21.02;nan
52949;BME280;38812;50.942;3.644;2023-09-19T11:04:29;100959.78;;;20.75;nan
52949;BME280;38812;50.942;3.644;2023-09-19T11:07:09;100960.25;;;21.10;nan
52949;BME280;38812;50.942;3.644;2023-09-19T11:12:57;100962.66;;;20.42;nan
52949;BME280;38812;50.942;3.644;2023-09-19T11:15:01;100954.28;;;20.18;nan
52949;BME280;38812;50.942;3.644;2023-09-19T11:17:30;100955.81;;;20.22;nan
52949;BME280;38812;50.942;3.644;2023-09-19T11:30:33;100962.13;;;20.51;nan
52949;BME280;38812;50.942;3.644;2023-09-19T11:33:30;100954.50;;;21.02;nan
52949;BME280;38812;50.942;3.644;2023-09-19T11:46:26;100944.81;;;20.72;nan
52949;BME280;38812;50.942;3.644;2023-09-19T11:48:53;100939.44;;;20.44;nan
52949;BME280;38812;50.942;3.644;2023-09-19T11:51:24;100953.13;;;20.08;nan
52949;BME280;38812;50.942;3.644;2023-09-19T11:53:57;100949.69;;;20.06;nan
52949;BME280;38812;50.942;3.644;2023-09-19T11:56:25;100958.00;;;19.85;nan
52949;BME280;38812;50.942;3.644;2023-09-19T11:58:54;100944.06;;;19.80;nan
52949;BME280;38812;50.942;3.644;2023-09-19T12:01:27;100940.44;;;19.81;nan
52949;BME280;38812;50.942;3.644;2023-09-19T12:03:56;100938.22;;;19.90;nan
52949;BME280;38812;50.942;3.644;2023-09-19T12:06:26;100924.25;;;20.14;nan
52949;BME280;38812;50.942;3.644;2023-09-19T12:08:52;100950.81;;;20.02;nan
52949;BME280;38812;50.942;3.644;2023-09-19T12:11:28;100945.66;;;19.99;nan
52949;BME280;38812;50.942;3.644;2023-09-19T12:13:55;100957.59;;;20.07;nan
52949;BME280;38812;50.942;3.644;2023-09-19T12:16:24;100957.25;;;20.13;nan
52949;BME280;38812;50.942;3.644;2023-09-19T12:18:50;100949.59;;;20.07;nan
52949;BME280;38812;50.942;3.644;2023-09-19T12:24:06;100962.78;;;19.95;nan
52949;BME280;38812;50.942;3.644;2023-09-19T12:26:45;100967.09;;;19.81;nan
52949;BME280;38812;50.942;3.644;2023-09-19T12:29:18;100957.16;;;19.69;nan
52949;BME280;38812;50.942;3.644;2023-09-19T12:31:48;100951.44;;;19.75;nan
52949;BME280;38812;50.942;3.644;2023-09-19T12:34:18;100942.31;;;19.95;nan
52949;BME280;38812;50.942;3.644;2023-09-19T12:36:44;100952.66;;;20.15;nan
52949;BME280;38812;50.942;3.644;2023-09-19T12:39:10;100949.34;;;19.96;nan
52949;BME280;38812;50.942;3.644;2023-09-19T12:41:37;100938.34;;;20.02;nan
52949;BME280;38812;50.942;3.644;2023-09-19T12:44:04;100942.91;;;20.00;nan
52949;BME280;38812;50.942;3.644;2023-09-19T12:46:34;100939.31;;;20.15;nan
52949;BME280;38812;50.942;3.644;2023-09-19T12:49:18;100946.94;;;20.37;nan
52949;BME280;38812;50.942;3.644;2023-09-19T12:51:45;100933.09;;;20.31;nan
52949;BME280;38812;50.942;3.644;2023-09-19T12:54:10;100944.03;;;20.26;nan
52949;BME280;38812;50.942;3.644;2023-09-19T12:56:40;100929.75;;;20.27;nan
52949;BME280;38812;50.942;3.644;2023-09-19T12:59:12;100955.22;;;20.17;nan
52949;BME280;38812;50.942;3.644;2023-09-19T13:01:40;100939.16;;;19.89;nan
52949;BME280;38812;50.942;3.644;2023-09-19T13:06:45;100943.22;;;19.64;nan
52949;BME280;38812;50.942;3.644;2023-09-19T13:09:11;100932.88;;;19.74;nan
52949;BME280;38812;50.942;3.644;2023-09-19T13:11:38;100935.81;;;19.85;nan
52949;BME280;38812;50.942;3.644;2023-09-19T13:14:19;100934.84;;;19.86;nan
52949;BME280;38812;50.942;3.644;2023-09-19T13:22:39;100941.38;;;20.26;nan
52949;BME280;38812;50.942;3.644;2023-09-19T13:25:07;100930.25;;;20.34;nan
52949;BME280;38812;50.942;3.644;2023-09-19T13:27:33;100934.50;;;20.36;nan
52949;BME280;38812;50.942;3.644;2023-09-19T13:29:59;100936.03;;;20.26;nan
52949;BME280;38812;50.942;3.644;2023-09-19T13:32:25;100938.38;;;20.16;nan
52949;BME280;38812;50.942;3.644;2023-09-19T13:34:51;100934.94;;;20.14;nan
52949;BME280;38812;50.942;3.644;2023-09-19T13:37:16;100934.91;;;20.00;nan
52949;BME280;38812;50.942;3.644;2023-09-19T13:39:43;100918.09;;;19.84;nan
52949;BME280;38812;50.942;3.644;2023-09-19T13:42:13;100925.66;;;19.76;nan
52949;BME280;38812;50.942;3.644;2023-09-19T13:44:38;100920.31;;;19.76;nan
52949;BME280;38812;50.942;3.644;2023-09-19T13:47:04;100919.81;;;19.85;nan
52949;BME280;38812;50.942;3.644;2023-09-19T13:49:35;100925.25;;;19.98;nan
52949;BME280;38812;50.942;3.644;2023-09-19T13:52:01;100915.28;;;20.01;nan
52949;BME280;38812;50.942;3.644;2023-09-19T13:54:29;100907.19;;;20.03;nan
52949;BME280;38812;50.942;3.644;2023-09-19T13:56:55;100912.59;;;19.87;nan
52949;BME280;38812;50.942;3.644;2023-09-19T13:59:20;100916.72;;;19.77;nan
52949;BME280;38812;50.942;3.644;2023-09-19T14:01:46;100924.31;;;19.69;nan
52949;BME280;38812;50.942;3.644;2023-09-19T14:04:11;100919.34;;;19.63;nan
52949;BME280;38812;50.942;3.644;2023-09-19T14:06:37;100909.41;;;19.49;nan
52949;BME280;38812;50.942;3.644;2023-09-19T14:09:03;100920.00;;;19.50;nan
52949;BME280;38812;50.942;3.644;2023-09-19T14:11:29;100929.13;;;19.46;nan